Time;durP1;ratioP1;P1;durP2;ratioP2;P2;SDS_P1;SDS_P2;PMS_P1;PMS_P2;Temp;Humidity;BMP_temperature;BMP_pressure;BME280_temperature;BME280_humidity;BME280_pressure;Samples;Min_cycle;Max_cycle;Signal;HPM_P1;HPM_P2
2022/06/20 00:02:28;;;;;;;7.93;6.32;;;16.10;99.90;;;;;;5073851;28;20074;-54
2022/06/20 00:04:55;;;;;;;8.82;5.88;;;16.10;99.90;;;;;;5074069;28;20028;-54
2022/06/20 00:07:22;;;;;;;7.43;6.25;;;16.10;99.90;;;;;;5074482;28;20043;-54
2022/06/20 00:09:48;;;;;;;8.82;5.68;;;16.10;99.90;;;;;;5073860;28;20500;-54
2022/06/20 00:12:21;;;;;;;7.05;6.18;;;16.00;99.90;;;;;;5074019;28;20043;-54
2022/06/20 00:14:50;;;;;;;6.97;5.95;;;16.00;99.90;;;;;;5074101;28;20028;-54
2022/06/20 00:17:16;;;;;;;7.38;6.60;;;15.90;99.90;;;;;;5073860;28;20036;-54
2022/06/20 00:19:42;;;;;;;9.57;6.10;;;15.90;99.90;;;;;;5074024;28;20390;-54
2022/06/20 00:22:11;;;;;;;8.27;6.97;;;16.00;99.90;;;;;;5073883;28;20032;-54
2022/06/20 00:24:38;;;;;;;8.63;7.22;;;15.90;99.90;;;;;;5073865;28;20060;-54
2022/06/20 00:27:08;;;;;;;9.77;7.00;;;16.00;99.90;;;;;;5073902;28;20139;-54
2022/06/20 00:29:38;;;;;;;10.95;7.00;;;16.00;99.90;;;;;;5072561;28;20024;-54
2022/06/20 00:32:06;;;;;;;9.13;6.53;;;15.90;99.90;;;;;;5073845;28;20379;-54
2022/06/20 00:34:33;;;;;;;7.95;6.70;;;15.90;99.90;;;;;;5073612;28;20496;-54
2022/06/20 00:37:00;;;;;;;7.88;6.00;;;15.90;99.90;;;;;;5073878;28;20078;-54
2022/06/20 00:39:26;;;;;;;7.30;6.28;;;15.80;99.90;;;;;;5073639;28;20029;-54
2022/06/20 00:41:52;;;;;;;7.55;5.80;;;15.80;99.90;;;;;;5073838;28;20028;-54
2022/06/20 00:44:31;;;;;;;7.18;5.75;;;15.80;99.90;;;;;;5073723;28;20032;-54
2022/06/20 00:47:03;;;;;;;8.00;6.20;;;15.80;99.90;;;;;;5073575;28;20037;-54
2022/06/20 00:49:34;;;;;;;7.82;6.28;;;15.80;99.90;;;;;;5074588;28;20029;-54
2022/06/20 00:52:14;;;;;;;8.00;6.25;;;15.70;99.90;;;;;;5077217;28;20506;-54
2022/06/20 00:54:49;;;;;;;7.70;5.85;;;15.70;99.90;;;;;;5077417;28;20051;-54
2022/06/20 00:57:38;;;;;;;6.95;5.70;;;15.70;99.90;;;;;;5077241;28;20024;-54
2022/06/20 01:00:07;;;;;;;7.50;6.00;;;15.80;99.90;;;;;;5077114;28;20359;-54
2022/06/20 01:02:44;;;;;;;9.93;6.50;;;15.80;99.90;;;;;;5077049;28;20388;-54
2022/06/20 01:05:29;;;;;;;11.07;6.75;;;15.80;99.90;;;;;;5077108;28;20533;-54
2022/06/20 01:07:58;;;;;;;14.93;7.80;;;15.80;99.90;;;;;;5076903;28;20029;-54
2022/06/20 01:10:25;;;;;;;12.23;8.10;;;15.70;99.90;;;;;;5077045;28;20123;-54
2022/06/20 01:13:03;;;;;;;9.43;6.22;;;15.60;99.90;;;;;;5076959;28;20024;-54
2022/06/20 01:15:39;;;;;;;10.82;6.47;;;15.60;99.90;;;;;;5076757;28;20044;-54
2022/06/20 01:18:16;;;;;;;14.82;6.35;;;15.70;99.90;;;;;;5076938;28;20469;-54
2022/06/20 01:20:44;;;;;;;7.13;6.20;;;15.60;99.90;;;;;;5076672;28;20036;-54
2022/06/20 01:23:19;;;;;;;9.27;6.43;;;15.50;99.90;;;;;;5077061;28;20040;-54
2022/06/20 01:26:10;;;;;;;7.78;6.95;;;15.50;99.90;;;;;;5076721;28;20101;-54
2022/06/20 01:28:40;;;;;;;8.80;6.80;;;15.50;99.90;;;;;;5076465;28;20068;-54
2022/06/20 01:31:09;;;;;;;9.43;6.50;;;15.60;99.90;;;;;;5076657;28;20028;-54
2022/06/20 01:33:36;;;;;;;7.63;5.88;;;15.50;99.90;;;;;;5076514;28;20156;-54
2022/06/20 01:38:48;;;;;;;10.75;6.63;;;15.60;99.90;;;;;;5076495;28;20472;-54
2022/06/20 01:44:01;;;;;;;8.80;6.18;;;15.40;99.90;;;;;;5076257;28;20032;-54
2022/06/20 01:46:30;;;;;;;9.32;6.03;;;15.50;99.90;;;;;;5076248;28;20032;-54
2022/06/20 01:49:00;;;;;;;8.65;6.18;;;15.50;99.90;;;;;;5076469;28;20056;-54
2022/06/20 01:51:52;;;;;;;9.30;6.10;;;15.40;99.90;;;;;;5076327;28;20021;-54
2022/06/20 01:54:20;;;;;;;7.72;6.78;;;15.50;99.90;;;;;;5076343;28;20738;-54
2022/06/20 01:56:48;;;;;;;6.82;5.95;;;15.40;99.90;;;;;;5076053;28;20024;-54
2022/06/20 01:59:20;;;;;;;11.93;6.15;;;15.40;99.90;;;;;;5075999;28;20115;-54
2022/06/20 02:01:47;;;;;;;7.85;6.10;;;15.40;99.90;;;;;;5076078;28;20039;-54
2022/06/20 02:04:18;;;;;;;9.32;6.60;;;15.40;99.90;;;;;;5075858;28;20028;-54
2022/06/20 02:06:45;;;;;;;8.55;6.35;;;15.40;99.90;;;;;;5076139;28;20036;-54
2022/06/20 02:09:12;;;;;;;8.93;6.03;;;15.40;99.90;;;;;;5075790;28;20040;-54
2022/06/20 02:11:44;;;;;;;9.93;6.20;;;15.30;99.90;;;;;;5075713;28;20025;-54
2022/06/20 02:14:33;;;;;;;8.50;6.28;;;15.40;99.90;;;;;;5075830;28;20027;-54
2022/06/20 02:17:04;;;;;;;7.00;6.30;;;15.30;99.90;;;;;;5075758;28;20023;-55
2022/06/20 02:19:41;;;;;;;7.93;6.43;;;15.30;99.90;;;;;;5075483;28;20044;-54
2022/06/20 02:22:09;;;;;;;9.23;6.40;;;15.20;99.90;;;;;;5075632;28;20363;-54
2022/06/20 02:24:39;;;;;;;8.80;6.80;;;15.10;99.90;;;;;;5075536;28;20029;-54
2022/06/20 02:27:11;;;;;;;8.02;5.95;;;15.10;99.90;;;;;;5075374;28;20329;-54
2022/06/20 02:29:37;;;;;;;12.13;7.97;;;15.10;99.90;;;;;;5075472;28;20115;-54
2022/06/20 02:32:09;;;;;;;11.10;7.63;;;15.00;99.90;;;;;;5075335;28;20109;-54
2022/06/20 02:34:35;;;;;;;12.48;8.45;;;15.10;99.90;;;;;;5055352;28;20068;-54
2022/06/20 02:37:04;;;;;;;11.27;7.55;;;15.10;99.90;;;;;;5055393;28;20025;-54
2022/06/20 02:39:31;;;;;;;10.07;6.47;;;15.00;99.90;;;;;;5062464;28;20100;-54
2022/06/20 02:42:02;;;;;;;10.38;7.22;;;14.90;99.90;;;;;;5075104;28;20032;-54
2022/06/20 02:44:29;;;;;;;;;;;14.90;99.90;;;;;;5075687;28;20089;-54
2022/06/20 02:46:56;;;;;;;14.88;8.43;;;14.90;99.90;;;;;;5074901;28;19912;-54
2022/06/20 02:49:26;;;;;;;13.65;8.25;;;14.90;99.90;;;;;;5075080;28;20582;-54
2022/06/20 02:51:54;;;;;;;17.13;7.93;;;14.90;99.90;;;;;;5074991;28;20074;-55
2022/06/20 02:54:24;;;;;;;13.73;7.82;;;14.80;99.90;;;;;;5074871;28;20325;-55
2022/06/20 02:56:54;;;;;;;13.50;7.75;;;14.70;99.90;;;;;;5075067;28;20478;-54
2022/06/20 02:59:27;;;;;;;12.00;7.95;;;14.60;99.90;;;;;;5074767;28;20028;-54
2022/06/20 03:02:08;;;;;;;11.63;7.55;;;14.60;99.90;;;;;;5074537;28;20028;-54
2022/06/20 03:04:37;;;;;;;9.95;7.35;;;14.60;99.90;;;;;;5074988;28;20044;-54
2022/06/20 03:07:25;;;;;;;10.85;7.15;;;14.60;99.90;;;;;;5074767;28;20025;-54
2022/06/20 03:10:00;;;;;;;10.35;7.40;;;14.60;99.90;;;;;;5074459;28;20063;-54
2022/06/20 03:12:26;;;;;;;12.48;7.03;;;14.60;99.90;;;;;;5074365;28;20021;-54
2022/06/20 03:14:56;;;;;;;12.43;8.00;;;14.60;99.90;;;;;;5074793;28;20032;-54
2022/06/20 03:17:23;;;;;;;9.88;7.35;;;14.60;99.90;;;;;;5074694;28;20020;-54
2022/06/20 03:19:54;;;;;;;13.27;8.30;;;14.70;99.90;;;;;;5074634;28;20028;-54
2022/06/20 03:22:23;;;;;;;13.75;8.07;;;14.70;99.90;;;;;;5074380;28;20036;-55
2022/06/20 03:24:51;;;;;;;11.23;7.80;;;14.60;99.90;;;;;;5074567;28;20020;-54
2022/06/20 03:27:29;;;;;;;9.75;7.78;;;14.60;99.90;;;;;;5074544;28;20407;-54
2022/06/20 03:29:59;;;;;;;13.40;7.75;;;14.60;99.90;;;;;;5074546;28;20029;-54
2022/06/20 03:32:26;;;;;;;13.32;7.22;;;14.60;99.90;;;;;;5074606;28;20066;-54
2022/06/20 03:34:53;;;;;;;8.35;7.53;;;14.60;99.90;;;;;;5074357;28;20390;-55
2022/06/20 03:37:20;;;;;;;11.18;6.93;;;14.60;99.90;;;;;;5074304;28;20052;-54
2022/06/20 03:39:48;;;;;;;8.98;7.40;;;14.60;99.90;;;;;;5074298;28;20490;-54
2022/06/20 03:42:15;;;;;;;8.68;7.20;;;14.60;99.90;;;;;;5074427;28;20028;-54
2022/06/20 03:44:54;;;;;;;9.77;8.07;;;14.60;99.90;;;;;;5074275;28;20440;-54
2022/06/20 03:47:27;;;;;;;11.20;7.75;;;14.70;99.90;;;;;;5074353;28;20043;-54
2022/06/20 03:50:02;;;;;;;13.77;7.35;;;14.70;99.90;;;;;;5074260;28;20657;-54
2022/06/20 03:52:33;;;;;;;8.07;6.88;;;14.80;99.90;;;;;;5074071;28;20048;-55
2022/06/20 03:55:04;;;;;;;10.55;7.13;;;14.80;99.90;;;;;;5074212;28;20386;-54
2022/06/20 03:58:19;;;;;;;11.15;7.25;;;15.00;99.90;;;;;;5074091;28;20060;-54
2022/06/20 04:01:01;;;;;;;8.18;7.25;;;15.00;99.90;;;;;;5055992;28;20033;-54
2022/06/20 04:03:35;;;;;;;9.00;7.32;;;15.00;99.90;;;;;;5074177;28;20107;-54
2022/06/20 04:06:27;;;;;;;9.75;7.18;;;15.10;99.90;;;;;;5073887;28;20032;-54
2022/06/20 04:12:20;;;;;;;10.40;7.75;;;15.30;99.90;;;;;;5072565;28;20421;-54
2022/06/20 04:15:12;;;;;;;15.23;8.40;;;15.40;99.90;;;;;;5074259;28;20024;-54
2022/06/20 04:20:58;;;;;;;14.23;8.50;;;15.50;99.90;;;;;;5073932;28;20175;-54
2022/06/20 04:23:36;;;;;;;15.68;9.18;;;15.70;99.90;;;;;;5074250;28;20021;-55
2022/06/20 04:26:17;;;;;;;16.88;9.52;;;15.80;99.90;;;;;;5077289;28;20077;-54
2022/06/20 04:28:57;;;;;;;24.33;10.65;;;15.90;99.90;;;;;;5077600;28;20029;-54
2022/06/20 04:31:54;;;;;;;21.50;9.00;;;16.00;99.90;;;;;;5077891;28;20145;-54
2022/06/20 04:34:25;;;;;;;12.38;8.68;;;16.10;99.90;;;;;;5077359;28;20486;-55
2022/06/20 04:36:55;;;;;;;20.35;9.20;;;16.20;99.90;;;;;;5077612;28;20351;-55
2022/06/20 04:39:23;;;;;;;17.23;8.30;;;16.30;99.90;;;;;;5077537;28;20103;-54
2022/06/20 04:42:06;;;;;;;14.98;9.45;;;16.40;99.90;;;;;;5077269;28;20059;-54
2022/06/20 04:45:00;;;;;;;19.75;10.07;;;16.50;99.90;;;;;;5077854;28;20059;-55
2022/06/20 04:47:40;;;;;;;14.95;9.60;;;16.70;99.90;;;;;;5076645;28;20041;-54
2022/06/20 04:50:14;;;;;;;11.98;8.45;;;16.80;99.90;;;;;;5077271;28;20035;-54
2022/06/20 04:52:40;;;;;;;13.98;8.27;;;17.00;99.90;;;;;;5077170;28;20048;-55
2022/06/20 04:55:07;;;;;;;15.10;9.90;;;17.00;99.90;;;;;;5077101;28;20108;-55
2022/06/20 04:57:34;;;;;;;15.45;9.23;;;17.00;99.90;;;;;;5077197;28;20020;-54
2022/06/20 05:00:04;;;;;;;19.20;9.18;;;17.20;99.90;;;;;;5077183;28;20490;-55
2022/06/20 05:02:30;;;;;;;13.88;8.95;;;17.20;99.90;;;;;;5077313;28;20029;-54
2022/06/20 05:04:58;;;;;;;10.98;8.48;;;17.30;99.90;;;;;;5077311;28;20032;-55
2022/06/20 05:07:30;;;;;;;11.68;9.20;;;17.50;99.90;;;;;;5077189;28;20025;-55
2022/06/20 05:10:09;;;;;;;15.02;8.70;;;17.60;99.90;;;;;;5076882;28;20068;-55
2022/06/20 05:12:52;;;;;;;19.75;9.75;;;17.70;99.90;;;;;;5076824;28;20404;-55
2022/06/20 05:15:33;;;;;;;13.93;9.70;;;17.80;99.90;;;;;;5076033;28;20033;-55
2022/06/20 05:18:17;;;;;;;17.58;8.65;;;18.00;99.90;;;;;;5072972;28;20070;-55
2022/06/20 05:20:44;;;;;;;14.38;8.45;;;18.10;99.90;;;;;;5073981;28;20021;-55
2022/06/20 05:23:27;;;;;;;17.25;8.95;;;18.30;99.90;;;;;;5073157;28;20036;-55
2022/06/20 05:25:55;;;;;;;16.58;9.52;;;18.40;99.90;;;;;;5069964;28;20036;-55
2022/06/20 05:28:24;;;;;;;11.45;7.65;;;18.50;99.90;;;;;;5071308;28;20063;-55
2022/06/20 05:30:51;;;;;;;22.83;8.50;;;18.60;99.90;;;;;;5077060;28;20031;-55
2022/06/20 05:33:36;;;;;;;13.52;8.10;;;18.70;99.90;;;;;;5073793;28;20020;-55
2022/06/20 05:36:20;;;;;;;12.40;7.57;;;18.80;99.90;;;;;;5074765;28;20029;-56
2022/06/20 05:38:51;;;;;;;16.27;8.25;;;19.00;99.90;;;;;;5075084;28;20024;-55
2022/06/20 05:41:17;;;;;;;13.48;8.43;;;19.10;99.90;;;;;;5076141;28;20032;-55
2022/06/20 05:43:44;;;;;;;21.08;9.98;;;19.20;99.90;;;;;;5075658;28;20478;-55
2022/06/20 05:46:23;;;;;;;18.35;8.55;;;19.30;99.90;;;;;;5076987;28;20029;-55
2022/06/20 05:48:58;;;;;;;21.27;9.45;;;19.40;99.90;;;;;;5076826;28;20084;-55
2022/06/20 05:51:26;;;;;;;11.88;8.02;;;19.60;99.90;;;;;;5076788;28;20036;-55
2022/06/20 05:54:04;;;;;;;13.88;7.45;;;19.70;99.90;;;;;;5075913;28;20110;-55
2022/06/20 05:56:39;;;;;;;13.50;7.60;;;19.80;99.90;;;;;;5075210;28;20451;-55
2022/06/20 05:59:06;;;;;;;20.52;8.57;;;19.90;99.90;;;;;;5075756;28;20108;-55
2022/06/20 06:01:38;;;;;;;17.98;8.70;;;20.10;99.90;;;;;;5076068;28;20029;-55
2022/06/20 06:04:58;;;;;;;13.45;7.28;;;20.20;99.90;;;;;;5075645;28;20382;-55
2022/06/20 06:07:35;;;;;;;9.93;6.70;;;20.40;99.90;;;;;;5073562;28;20025;-55
2022/06/20 06:10:22;;;;;;;15.30;8.27;;;20.60;99.90;;;;;;5058185;28;20037;-55
2022/06/20 06:13:04;;;;;;;17.67;8.40;;;20.80;99.90;;;;;;5056028;28;20368;-55
2022/06/20 06:16:46;;;;;;;13.60;7.40;;;20.90;99.90;;;;;;5055703;28;20032;-55
2022/06/20 06:18:31;;;;;;;17.38;8.00;;;21.10;99.90;;;;;;5055410;28;20056;-55
2022/06/20 06:20:57;;;;;;;35.88;10.15;;;21.30;99.90;;;;;;5055731;28;20037;-55
2022/06/20 06:23:23;;;;;;;17.48;7.72;;;21.40;99.90;;;;;;5055586;28;20067;-56
2022/06/20 06:25:49;;;;;;;21.05;8.18;;;21.60;99.90;;;;;;5055402;28;20056;-55
2022/06/20 06:28:22;;;;;;;18.05;8.52;;;21.80;99.90;;;;;;5055476;28;20277;-55
2022/06/20 06:31:11;;;;;;;16.35;7.38;;;21.90;99.90;;;;;;5055395;28;20029;-55
2022/06/20 06:33:43;;;;;;;19.95;8.50;;;22.10;99.90;;;;;;5066994;28;20073;-55
2022/06/20 06:36:19;;;;;;;23.63;8.63;;;22.30;99.90;;;;;;5075524;28;20039;-56
2022/06/20 06:38:52;;;;;;;24.00;8.63;;;22.40;99.90;;;;;;5074906;28;20024;-55
2022/06/20 06:41:29;;;;;;;17.30;6.97;;;22.60;99.90;;;;;;5074584;28;20425;-55
2022/06/20 06:43:57;;;;;;;18.02;7.75;;;22.80;98.00;;;;;;5074221;28;20056;-56
2022/06/20 06:46:39;;;;;;;14.98;6.65;;;23.00;98.50;;;;;;5073956;28;20038;-56
2022/06/20 06:49:07;;;;;;;17.25;7.88;;;23.20;99.10;;;;;;5073787;28;20112;-56
2022/06/20 06:51:50;;;;;;;12.10;6.97;;;23.50;97.60;;;;;;5074075;28;20108;-56
2022/06/20 06:54:21;;;;;;;14.25;7.22;;;23.70;96.70;;;;;;5072625;28;20040;-55
2022/06/20 06:57:03;;;;;;;13.80;6.70;;;23.80;94.10;;;;;;5074191;28;20510;-56
2022/06/20 06:59:38;;;;;;;14.60;6.38;;;24.10;94.10;;;;;;5052406;28;20402;-56
2022/06/20 07:02:12;;;;;;;18.10;7.63;;;24.40;91.10;;;;;;5054050;28;20574;-56
2022/06/20 07:04:54;;;;;;;14.43;7.03;;;24.70;88.10;;;;;;5062218;28;20060;-56
2022/06/20 07:07:24;;;;;;;38.03;7.93;;;25.00;92.20;;;;;;5054339;28;20368;-56
2022/06/20 07:09:53;;;;;;;16.50;6.90;;;25.30;90.10;;;;;;5055015;28;20116;-56
2022/06/20 07:12:30;;;;;;;24.02;8.15;;;25.50;82.90;;;;;;5066315;28;20028;-56
2022/06/20 07:15:28;;;;;;;14.75;6.95;;;25.70;81.00;;;;;;5074682;28;20028;-56
2022/06/20 07:18:00;;;;;;;23.60;8.02;;;26.10;84.10;;;;;;5070718;28;20040;-56
2022/06/20 07:20:35;;;;;;;12.20;5.57;;;26.50;70.10;;;;;;5073778;28;20113;-56
2022/06/20 07:23:05;;;;;;;10.40;6.00;;;26.80;71.20;;;;;;5073784;28;20060;-56
2022/06/20 07:25:37;;;;;;;9.93;5.55;;;27.00;74.90;;;;;;5073981;28;20024;-56
2022/06/20 07:28:25;;;;;;;15.07;5.82;;;27.40;70.20;;;;;;5073201;28;20082;-56
2022/06/20 07:30:57;;;;;;;16.40;6.18;;;27.70;61.90;;;;;;5073969;28;20023;-56
2022/06/20 07:33:31;;;;;;;9.68;5.57;;;28.00;65.50;;;;;;5074147;28;20448;-56
2022/06/20 07:36:01;;;;;;;12.68;5.85;;;28.40;65.20;;;;;;5074173;28;20028;-56
2022/06/20 07:38:52;;;;;;;7.95;5.03;;;28.70;59.50;;;;;;5074333;28;20108;-56
2022/06/20 07:41:24;;;;;;;8.70;5.10;;;28.80;57.10;;;;;;5059764;28;20033;-56
2022/06/20 07:44:21;;;;;;;11.25;6.13;;;29.00;58.20;;;;;;5073988;28;20021;-56
2022/06/20 07:46:57;;;;;;;10.60;5.20;;;29.40;57.30;;;;;;5054054;28;20033;-56
2022/06/20 07:49:36;;;;;;;8.60;5.25;;;29.80;55.90;;;;;;5054314;28;20036;-56
2022/06/20 07:52:10;;;;;;;11.90;4.60;;;29.90;55.80;;;;;;5056328;28;20040;-57
2022/06/20 07:54:41;;;;;;;8.63;5.28;;;29.90;54.20;;;;;;5074122;28;20021;-56
2022/06/20 07:57:20;;;;;;;27.40;14.98;;;30.30;54.60;;;;;;5073856;28;20080;-56
2022/06/20 08:00:11;;;;;;;9.15;5.47;;;30.60;53.00;;;;;;5078153;28;20028;-56
2022/06/20 08:02:48;;;;;;;8.95;4.50;;;30.40;49.50;;;;;;5078414;28;20032;-56
2022/06/20 08:05:21;;;;;;;12.10;5.38;;;30.60;50.70;;;;;;5078993;28;20025;-56
2022/06/20 08:07:58;;;;;;;12.93;5.38;;;31.00;52.20;;;;;;5078149;28;20025;-56
2022/06/20 08:10:46;;;;;;;16.63;6.85;;;31.40;49.90;;;;;;5077711;28;20032;-56
2022/06/20 08:13:15;;;;;;;15.32;5.47;;;31.50;49.80;;;;;;5058283;28;20112;-56
2022/06/20 08:15:50;;;;;;;24.77;6.30;;;31.80;49.10;;;;;;5075288;28;20017;-56
2022/06/20 08:18:16;;;;;;;14.98;6.90;;;31.50;47.20;;;;;;5077670;28;20131;-56
2022/06/20 08:20:47;;;;;;;11.48;5.70;;;31.60;48.80;;;;;;5076717;28;20025;-56
2022/06/20 08:23:22;;;;;;;18.80;7.15;;;32.00;48.00;;;;;;5077567;28;20381;-57
2022/06/20 08:25:58;;;;;;;15.20;6.80;;;32.30;47.70;;;;;;5077713;28;20036;-57
2022/06/20 08:28:31;;;;;;;12.40;7.10;;;32.50;46.30;;;;;;5077074;28;20115;-56
2022/06/20 08:31:06;;;;;;;18.38;7.65;;;32.70;47.30;;;;;;5076703;28;20381;-56
2022/06/20 08:34:06;;;;;;;19.77;7.50;;;32.50;45.30;;;;;;5069778;28;20036;-56
2022/06/20 08:36:43;;;;;;;16.88;6.30;;;32.10;44.60;;;;;;5076629;28;20023;-56
2022/06/20 08:39:26;;;;;;;10.35;6.10;;;32.50;46.00;;;;;;5076804;28;20017;-56
2022/06/20 08:42:14;;;;;;;14.27;6.05;;;32.00;46.00;;;;;;5074987;28;20115;-56
2022/06/20 08:44:46;;;;;;;11.15;5.85;;;32.70;48.20;;;;;;5077345;28;20054;-56
2022/06/20 08:47:27;;;;;;;21.10;7.38;;;33.10;45.90;;;;;;5077449;28;20107;-57
2022/06/20 08:50:14;;;;;;;9.60;5.90;;;33.60;44.50;;;;;;5075741;28;20067;-56
2022/06/20 08:53:12;;;;;;;11.45;5.70;;;33.80;43.50;;;;;;5071717;28;20120;-56
2022/06/20 08:55:58;;;;;;;8.35;5.55;;;34.00;42.20;;;;;;5076790;28;20078;-56
2022/06/20 08:58:41;;;;;;;8.02;5.30;;;33.90;43.40;;;;;;5076022;28;20025;-56
2022/06/20 09:01:31;;;;;;;11.07;5.55;;;34.20;41.20;;;;;;5076800;28;20085;-56
2022/06/20 09:04:03;;;;;;;8.38;5.13;;;34.20;41.90;;;;;;5074627;28;20031;-56
2022/06/20 09:07:00;;;;;;;18.33;5.72;;;34.50;44.30;;;;;;5075259;28;20031;-56
2022/06/20 09:09:59;;;;;;;6.85;5.28;;;34.40;43.00;;;;;;5073089;28;20429;-56
2022/06/20 09:12:46;;;;;;;9.32;4.85;;;33.10;40.00;;;;;;5076407;28;20090;-56
2022/06/20 09:15:44;;;;;;;6.75;4.75;;;33.60;42.50;;;;;;5055529;28;20113;-56
2022/06/20 09:18:40;;;;;;;11.38;5.57;;;34.40;44.80;;;;;;5068278;28;20465;-56
2022/06/20 09:21:29;;;;;;;18.73;6.03;;;34.60;41.30;;;;;;5077387;28;20489;-56
2022/06/20 09:24:07;;;;;;;10.95;5.38;;;34.40;40.40;;;;;;5076752;28;20032;-56
2022/06/20 09:26:50;;;;;;;15.38;7.85;;;34.50;41.60;;;;;;5076310;28;20024;-56
2022/06/20 09:29:28;;;;;;;21.70;7.57;;;33.60;38.20;;;;;;5076496;28;20060;-56
2022/06/20 09:32:09;;;;;;;17.77;7.07;;;33.70;40.90;;;;;;5075863;28;20081;-56
2022/06/20 09:34:59;;;;;;;22.17;7.45;;;33.70;40.30;;;;;;5091550;28;20035;-56
2022/06/20 09:37:53;;;;;;;28.58;9.38;;;33.70;39.30;;;;;;5056396;28;20025;-56
2022/06/20 09:40:38;;;;;;;23.52;8.75;;;33.70;38.50;;;;;;5070188;28;20037;-56
2022/06/20 09:43:51;;;;;;;24.02;7.47;;;33.60;38.80;;;;;;5076530;28;20039;-56
2022/06/20 09:47:03;;;;;;;19.58;7.70;;;34.80;39.50;;;;;;5053713;28;20071;-56
2022/06/20 09:49:40;;;;;;;21.02;7.53;;;35.20;37.60;;;;;;5056282;28;20039;-56
2022/06/20 09:52:43;;;;;;;22.70;7.05;;;35.30;36.80;;;;;;5055626;28;20049;-57
2022/06/20 09:55:30;;;;;;;33.33;10.48;;;35.30;37.10;;;;;;5038566;28;20117;-56
2022/06/20 09:58:12;;;;;;;16.38;6.85;;;34.80;38.30;;;;;;5055661;28;20025;-56
2022/06/20 10:00:47;;;;;;;21.85;7.95;;;35.10;37.80;;;;;;5065460;28;20028;-56
2022/06/20 10:03:16;;;;;;;20.95;7.60;;;35.30;37.50;;;;;;5072206;28;20037;-56
2022/06/20 10:06:06;;;;;;;18.55;8.10;;;35.70;35.80;;;;;;5074752;28;20028;-56
2022/06/20 10:09:08;;;;;;;20.00;8.07;;;35.80;38.00;;;;;;5075277;28;20090;-56
2022/06/20 10:11:49;;;;;;;24.70;9.25;;;35.70;37.60;;;;;;5072392;28;20044;-56
2022/06/20 10:14:51;;;;;;;22.35;8.48;;;35.60;35.90;;;;;;5075709;28;20171;-56
2022/06/20 10:17:28;;;;;;;21.73;7.80;;;36.00;34.20;;;;;;5057776;28;20498;-56
2022/06/20 10:20:16;;;;;;;14.43;5.93;;;35.90;34.00;;;;;;5075637;28;20037;-56
2022/06/20 10:22:54;;;;;;;11.45;5.25;;;36.20;33.60;;;;;;5074393;28;20513;-56
2022/06/20 10:25:34;;;;;;;13.25;6.18;;;36.20;32.00;;;;;;5075545;28;20381;-56
2022/06/20 10:28:09;;;;;;;14.13;5.65;;;35.50;35.40;;;;;;5075427;28;20017;-56
2022/06/20 10:30:44;;;;;;;16.15;6.13;;;34.80;36.20;;;;;;5075277;28;20033;-56
2022/06/20 10:33:31;;;;;;;11.45;6.40;;;34.60;37.40;;;;;;5075321;28;20016;-56
2022/06/20 10:36:09;;;;;;;9.02;4.72;;;35.30;39.90;;;;;;5075393;28;20060;-56
2022/06/20 10:39:09;;;;;;;5.95;4.05;;;35.90;35.30;;;;;;5075221;28;20051;-56
2022/06/20 10:41:46;;;;;;;6.53;4.65;;;36.30;33.50;;;;;;5043039;28;20068;-57
2022/06/20 10:44:22;;;;;;;14.65;5.55;;;36.00;33.30;;;;;;5055304;28;20027;-56
2022/06/20 10:47:04;;;;;;;10.60;4.60;;;36.00;35.30;;;;;;5055135;28;20590;-56
2022/06/20 10:49:49;;;;;;;6.57;3.33;;;36.20;32.40;;;;;;5054924;28;20017;-56
2022/06/20 10:52:39;;;;;;;5.03;3.05;;;36.50;29.50;;;;;;5054486;28;20063;-56
2022/06/20 10:55:21;;;;;;;8.38;4.97;;;36.90;30.40;;;;;;5057997;28;20021;-56
2022/06/20 10:58:28;;;;;;;5.03;2.88;;;35.90;27.80;;;;;;5074513;28;20046;-56
2022/06/20 11:01:14;;;;;;;11.18;5.05;;;36.50;31.20;;;;;;5070055;28;20475;-56
2022/06/20 11:04:14;;;;;;;10.35;4.93;;;36.50;29.10;;;;;;5074371;28;20044;-56
2022/06/20 11:07:17;;;;;;;5.50;3.55;;;36.40;30.40;;;;;;5074769;28;20036;-56
2022/06/20 11:10:17;;;;;;;6.38;3.08;;;37.10;29.20;;;;;;5074441;28;20052;-56
2022/06/20 11:13:06;;;;;;;6.32;3.53;;;37.30;28.20;;;;;;5074742;28;20032;-56
2022/06/20 11:15:53;;;;;;;4.95;3.30;;;37.10;28.80;;;;;;5071496;28;20037;-56
2022/06/20 11:18:48;;;;;;;9.68;3.17;;;37.30;29.30;;;;;;5074304;28;20474;-56
2022/06/20 11:21:38;;;;;;;11.52;4.25;;;37.30;28.80;;;;;;5074595;28;20482;-56
2022/06/20 11:24:29;;;;;;;9.23;5.13;;;37.30;28.40;;;;;;5074611;28;20033;-56
2022/06/20 11:27:22;;;;;;;6.72;3.92;;;36.90;33.70;;;;;;5074484;28;20060;-56
2022/06/20 11:30:36;;;;;;;11.82;4.65;;;37.00;29.70;;;;;;5074588;28;20040;-56
2022/06/20 11:33:18;;;;;;;4.15;3.45;;;36.70;30.30;;;;;;5063745;28;20116;-56
2022/06/20 11:35:44;;;;;;;18.23;5.15;;;36.30;32.00;;;;;;5074547;28;20024;-56
2022/06/20 11:38:39;;;;;;;6.68;3.70;;;35.80;29.90;;;;;;5073732;28;20027;-56
2022/06/20 11:41:31;;;;;;;4.15;3.28;;;36.60;29.90;;;;;;5053950;28;20071;-56
2022/06/20 11:44:25;;;;;;;5.65;4.38;;;36.90;30.20;;;;;;5053163;28;20482;-56
2022/06/20 11:47:45;;;;;;;8.98;4.43;;;37.10;31.90;;;;;;5053902;28;20434;-56
2022/06/20 11:50:33;;;;;;;7.40;4.25;;;37.50;28.40;;;;;;5031829;28;20546;-57
2022/06/20 11:53:21;;;;;;;8.75;4.03;;;37.50;30.70;;;;;;5031006;28;20294;-56
2022/06/20 11:55:52;;;;;;;13.13;5.20;;;37.50;29.40;;;;;;5031341;28;20061;-56
2022/06/20 11:58:32;;;;;;;6.78;3.78;;;37.50;29.20;;;;;;5030831;28;20037;-56
2022/06/20 12:01:10;;;;;;;5.97;3.90;;;37.70;28.10;;;;;;5031514;28;20519;-56
2022/06/20 12:03:43;;;;;;;10.82;5.53;;;37.80;28.40;;;;;;5031620;28;20037;-56
2022/06/20 12:06:24;;;;;;;7.20;4.88;;;36.50;28.70;;;;;;5031508;28;20030;-56
2022/06/20 12:09:01;;;;;;;8.02;4.40;;;37.30;28.80;;;;;;5031186;28;20045;-56
2022/06/20 12:11:30;;;;;;;10.65;4.57;;;37.30;30.00;;;;;;5031661;28;20033;-56
2022/06/20 12:14:17;;;;;;;9.00;5.60;;;37.20;28.80;;;;;;5031018;28;20041;-56
2022/06/20 12:17:00;;;;;;;6.30;5.05;;;36.50;29.40;;;;;;5031297;28;20041;-56
2022/06/20 12:25:37;;;;;;;21.73;9.02;;;35.00;30.00;;;;;;5073637;28;20482;-56
2022/06/20 12:28:18;;;;;;;12.70;7.18;;;34.90;32.70;;;;;;5073088;28;20024;-56
2022/06/20 12:30:58;;;;;;;17.83;9.25;;;35.40;33.80;;;;;;5072480;28;20177;-56
2022/06/20 12:33:24;;;;;;;;;;;35.60;30.60;;;;;;5071185;28;20025;-56
2022/06/20 12:36:00;;;;;;;15.15;8.13;;;36.00;31.80;;;;;;5073000;28;20004;-56
2022/06/20 12:38:33;;;;;;;14.25;7.65;;;36.20;30.80;;;;;;5072985;28;20016;-56
2022/06/20 12:41:02;;;;;;;14.95;8.63;;;36.60;33.10;;;;;;5073012;28;20052;-56
2022/06/20 12:43:47;;;;;;;15.68;7.82;;;36.90;32.20;;;;;;5074064;28;20032;-56
2022/06/20 12:46:33;;;;;;;20.30;8.60;;;36.70;30.00;;;;;;5075359;28;20038;-56
2022/06/20 12:49:24;;;;;;;15.40;8.15;;;36.50;30.70;;;;;;5066140;28;20523;-56
2022/06/20 12:52:02;;;;;;;15.82;8.05;;;36.70;33.00;;;;;;5072986;28;20115;-56
2022/06/20 12:54:52;;;;;;;16.08;7.38;;;37.00;30.90;;;;;;5074409;28;20545;-56
2022/06/20 12:58:03;;;;;;;14.32;6.68;;;37.20;31.30;;;;;;5074998;28;20052;-56
2022/06/20 13:00:57;;;;;;;12.50;6.82;;;37.40;33.60;;;;;;5063441;28;20071;-56
2022/06/20 13:03:53;;;;;;;17.35;6.85;;;37.70;32.70;;;;;;5072340;28;20027;-56
2022/06/20 13:06:29;;;;;;;15.38;6.00;;;37.50;34.30;;;;;;5075881;28;20107;-56
2022/06/20 13:09:23;;;;;;;6.97;4.72;;;37.60;30.00;;;;;;5075982;28;20017;-56
2022/06/20 13:12:04;;;;;;;9.35;4.82;;;37.30;29.20;;;;;;5062994;28;20054;-56
2022/06/20 13:14:30;;;;;;;14.15;4.85;;;37.20;29.70;;;;;;5073466;28;20504;-56
2022/06/20 13:17:14;;;;;;;25.48;7.10;;;37.00;31.00;;;;;;5075287;28;20111;-56
2022/06/20 13:19:46;;;;;;;16.00;6.05;;;36.90;30.50;;;;;;5075201;28;20066;-56
2022/06/20 13:22:36;;;;;;;20.05;5.55;;;36.50;30.70;;;;;;5075736;28;20024;-56
2022/06/20 13:25:23;;;;;;;15.40;5.35;;;36.10;34.40;;;;;;5076089;28;20017;-56
2022/06/20 13:28:28;;;;;;;8.50;3.97;;;36.10;34.50;;;;;;5076475;28;20032;-56
2022/06/20 13:31:20;;;;;;;13.82;4.68;;;36.30;34.10;;;;;;5076386;28;20020;-56
2022/06/20 13:34:05;;;;;;;21.75;6.35;;;36.60;34.20;;;;;;5076342;28;20025;-56
2022/06/20 13:36:40;;;;;;;13.25;4.72;;;36.50;31.40;;;;;;5076165;28;20024;-56
2022/06/20 13:39:17;;;;;;;10.27;4.57;;;36.50;31.00;;;;;;5076098;28;20056;-56
2022/06/20 13:42:00;;;;;;;9.73;4.03;;;36.50;31.50;;;;;;5074556;28;20059;-56
2022/06/20 13:44:35;;;;;;;9.95;4.35;;;36.40;35.50;;;;;;5076387;28;20082;-56
2022/06/20 13:47:21;;;;;;;13.57;4.90;;;36.40;32.40;;;;;;5076640;28;20093;-56
2022/06/20 13:50:02;;;;;;;11.20;4.70;;;35.70;33.80;;;;;;5076158;28;20067;-56
2022/06/20 13:52:34;;;;;;;7.70;3.70;;;36.00;34.80;;;;;;5076095;28;20044;-56
2022/06/20 13:55:13;;;;;;;13.65;5.28;;;36.10;36.80;;;;;;5076137;28;20078;-56
2022/06/20 13:58:03;;;;;;;33.07;7.50;;;36.00;37.60;;;;;;5076097;28;20437;-56